TERMINUS DAM (TRM)

Elevation: 752' · KAWEAH R basin · Operator: US Army Corps of Engineers

Provisional data, subject to change.
Query executed Tuesday at 12:00:45   clock

Select a sensor type for a plot of data.
Note: Reservoir Flows are daily averages.

Earlier

Date RES ELE    STORAGE    RES CHG    TOC STO    ABV TOC    OUTFLOW    INFLOW    FNF    PPT INC    TEMP MN    TEMP MX    WINDLEN    EVP PAN   
 FEET   AF   AF   AF   AF   CFS   CFS   CFS   INCHES   DEG F   DEG F   MILES   INCHES  
07/31/2016 604.25 22771 -1426 185300 -162529 777 66 66 0.00 24 40 95 0.34
08/01/2016 602.43 21539 -1232 185300 -163761 729 116 116 0.00 21 39 79 0.32
08/02/2016 600.85 20509 -- 185300 -- 579 67 67 0.00 21 39 82 0.32
08/03/2016 599.71 19788 -721 185300 -165512 396 40 40 0.00 22 39 89 0.33
08/04/2016 598.96 19324 -464 185300 -165976 293 66 66 0.00 22 38 95 0.33
08/05/2016 598.15 18833 -491 185300 -166467 275 33 33 0.00 18 36 82 0.30
08/06/2016 597.53 18463 -370 185300 -166837 274 94 94 0.00 18 37 82 0.31
08/07/2016 596.71 17981 -482 185300 -167319 273 37 37 0.00 18 36 88 0.31
08/08/2016 596.01 17578 -403 185300 -167722 230 34 34 0.00 21 37 116 0.34
08/09/2016 595.60 17345 -233 185300 -167955 185 74 74 0.00 20 37 99 0.33
08/10/2016 595.09 17059 -286 185300 -168241 176 38 38 0.00 20 36 92 0.31
08/11/2016 594.67 16826 -233 185300 -168474 171 60 60 0.00 21 38 89 0.32
08/12/2016 594.25 16595 -231 185300 -168705 171 60 60 0.00 22 40 92 0.33
08/13/2016 593.64 16264 -331 185300 -169036 171 10 10 0.00 23 41 93 0.33
08/14/2016 593.20 16029 -235 185300 -169271 171 59 59 0.00 25 42 101 0.35
08/15/2016 592.59 15706 -323 185300 -169594 169 12 12 0.00 21 39 90 0.32
08/16/2016 592.06 15431 -275 185300 -169869 168 35 35 0.00 22 39 101 0.33
08/17/2016 591.49 15138 -293 185300 -170162 171 29 29 0.00 23 40 98 0.33
08/18/2016 591.08 14931 -207 185300 -170369 172 74 74 0.00 24 40 97 0.32
08/19/2016 590.55 14665 -266 185300 -170635 172 44 44 0.00 23 41 86 0.32
08/20/2016 590.00 14394 -271 185300 -170906 173 41 41 0.00 22 37 94 0.29
08/21/2016 589.43 14117 -277 185300 -171183 174 39 39 0.00 23 37 84 0.28
08/22/2016 588.90 13863 -254 185300 -171437 170 46 46 0.00 20 34 74 0.23
08/23/2016 588.42 13637 -226 185300 -171663 144 35 35 0.00 21 36 90 0.29
08/24/2016 588.05 13464 -173 185300 -171836 126 43 43 0.00 21 36 86 0.29
08/25/2016 588.04 13459 -5 185300 -171841 115 117 117 0.00 21 37 98 0.31
08/26/2016 588.05 13464 5 185300 -171836 103 110 -- 0.00 19 35 93 0.28
08/27/2016 588.03 13454 -10 185300 -171846 103 102 -- 0.00 16 33 85 0.26
08/28/2016 588.05 13464 10 185300 -171836 103 112 -- 0.00 21 34 97 0.28
08/29/2016 -- -- -- 185300 -- 98 -- -- 0.00 21 37 97 0.29
08/30/2016 -- -- -- -- -- -- -- -- -- -- -- -- --

Later | Latest

Warning! This data is preliminary and subject to revision.

Show TRM Map | Plot TRM Data | 1 Month TRM Data | Real-Time TRM Data | TRM Info